Time,TemperatureF,DewpointF,PressureIn,WindDirection,WindDirectionDegrees,WindSpeedMPH,WindSpeedGustMPH,Humidity,HourlyPrecipIn,Conditions,Clouds,dailyrainin,SolarRadiationWatts/m^2,SoftwareType,DateUTC
2013-06-03 00:02:00,60.0,55.0,-100.00,SW,223,4.0,7.0,83,0.00,,,0.00,0.000000,,2013-06-03 07:02:00,
2013-06-03 00:12:00,60.0,55.0,-100.00,SW,223,4.0,7.0,83,0.00,,,0.00,0.000000,,2013-06-03 07:12:00,
2013-06-03 00:32:00,58.0,54.0,-100.00,West,274,1.0,5.0,87,0.00,,,0.00,0.000000,,2013-06-03 07:32:00,
2013-06-03 00:42:00,58.0,54.0,-100.00,West,274,1.0,5.0,87,0.00,,,0.00,0.000000,,2013-06-03 07:42:00,
2013-06-03 00:52:00,58.0,54.0,-100.00,West,274,1.0,5.0,87,0.00,,,0.00,0.000000,,2013-06-03 07:52:00,
2013-06-03 01:02:00,58.0,54.0,-100.00,West,274,1.0,5.0,87,0.00,,,0.00,0.000000,,2013-06-03 08:02:00,
2013-06-03 01:12:00,58.0,54.0,-100.00,West,274,1.0,5.0,87,0.00,,,0.00,0.000000,,2013-06-03 08:12:00,
2013-06-03 01:32:00,56.0,53.0,-100.00,WSW,252,2.0,5.0,91,0.00,,,0.00,0.000000,,2013-06-03 08:32:00,
2013-06-03 01:42:00,56.0,53.0,-100.00,WSW,252,2.0,5.0,91,0.00,,,0.00,0.000000,,2013-06-03 08:42:00,
2013-06-03 01:52:00,56.0,53.0,-100.00,WSW,252,2.0,5.0,91,0.00,,,0.00,0.000000,,2013-06-03 08:52:00,
2013-06-03 02:02:00,56.0,53.0,-100.00,WSW,252,2.0,5.0,91,0.00,,,0.00,0.000000,,2013-06-03 09:02:00,
2013-06-03 02:12:00,56.0,53.0,-100.00,WSW,252,2.0,5.0,91,0.00,,,0.00,0.000000,,2013-06-03 09:12:00,
2013-06-03 02:33:00,56.0,54.0,-100.00,WSW,246,3.0,5.0,94,0.00,,,0.00,0.000000,,2013-06-03 09:33:00,
2013-06-03 02:43:00,56.0,54.0,-100.00,WSW,246,3.0,5.0,94,0.00,,,0.00,0.000000,,2013-06-03 09:43:00,
2013-06-03 02:53:00,56.0,54.0,-100.00,WSW,246,3.0,5.0,94,0.00,,,0.00,0.000000,,2013-06-03 09:53:00,
2013-06-03 03:02:00,56.0,54.0,-100.00,WSW,246,3.0,5.0,94,0.00,,,0.00,0.000000,,2013-06-03 10:02:00,
2013-06-03 03:12:00,56.0,54.0,-100.00,WSW,246,3.0,5.0,94,0.00,,,0.00,0.000000,,2013-06-03 10:12:00,
2013-06-03 03:33:00,55.0,54.0,-100.00,WSW,249,4.0,6.0,96,0.00,,,0.00,0.000000,,2013-06-03 10:33:00,
2013-06-03 03:42:00,55.0,54.0,-100.00,WSW,249,4.0,6.0,96,0.00,,,0.00,0.000000,,2013-06-03 10:42:00,
2013-06-03 03:52:00,55.0,54.0,-100.00,WSW,249,4.0,6.0,96,0.00,,,0.00,0.000000,,2013-06-03 10:52:00,
2013-06-03 04:02:00,55.0,54.0,-100.00,WSW,249,4.0,6.0,96,0.00,,,0.00,0.000000,,2013-06-03 11:02:00,
2013-06-03 04:12:00,55.0,54.0,-100.00,WSW,249,4.0,6.0,96,0.00,,,0.00,0.000000,,2013-06-03 11:12:00,
2013-06-03 04:32:00,54.0,54.0,-100.00,West,261,4.0,7.0,100,0.00,,,0.00,0.000000,,2013-06-03 11:32:00,
2013-06-03 04:42:00,54.0,54.0,-100.00,West,261,4.0,7.0,100,0.00,,,0.00,0.000000,,2013-06-03 11:42:00,
2013-06-03 04:52:00,54.0,54.0,-100.00,West,261,4.0,7.0,100,0.00,,,0.00,0.000000,,2013-06-03 11:52:00,
2013-06-03 05:02:00,54.0,54.0,-100.00,West,261,4.0,7.0,100,0.00,,,0.00,0.000000,,2013-06-03 12:02:00,
2013-06-03 05:12:00,54.0,54.0,-100.00,West,261,4.0,7.0,100,0.00,,,0.00,0.000000,,2013-06-03 12:12:00,
2013-06-03 05:32:00,54.0,54.0,-100.00,WSW,258,2.0,7.0,100,0.00,,,-99.99,0.000000,,2013-06-03 12:32:00,
2013-06-03 05:42:00,54.0,54.0,-100.00,WSW,258,2.0,7.0,100,0.00,,,-99.99,0.000000,,2013-06-03 12:42:00,
2013-06-03 05:52:00,54.0,54.0,-100.00,WSW,258,2.0,7.0,100,0.00,,,-99.99,0.000000,,2013-06-03 12:52:00,
2013-06-03 06:02:00,54.0,54.0,-100.00,WSW,258,2.0,7.0,100,0.00,,,-99.99,0.000000,,2013-06-03 13:02:00,
2013-06-03 06:11:00,54.0,54.0,-100.00,WSW,258,2.0,7.0,100,0.00,,,-99.99,0.000000,,2013-06-03 13:11:00,
2013-06-03 06:32:00,54.0,54.0,-100.00,West,269,2.0,7.0,100,0.00,,,0.00,3.000000,,2013-06-03 13:32:00,
2013-06-03 06:43:00,54.0,54.0,-100.00,West,269,2.0,7.0,100,0.00,,,0.00,3.000000,,2013-06-03 13:43:00,
2013-06-03 06:52:00,54.0,54.0,-100.00,West,269,2.0,7.0,100,0.00,,,0.00,3.000000,,2013-06-03 13:52:00,
2013-06-03 07:02:00,54.0,54.0,-100.00,West,269,2.0,7.0,100,0.00,,,0.00,3.000000,,2013-06-03 14:02:00,
2013-06-03 07:12:00,54.0,54.0,-100.00,West,269,2.0,7.0,100,0.00,,,0.00,3.000000,,2013-06-03 14:12:00,
2013-06-03 07:33:00,54.0,54.0,-100.00,WSW,255,3.0,8.0,100,0.00,,,0.00,27.000000,,2013-06-03 14:33:00,
2013-06-03 07:42:00,54.0,54.0,-100.00,WSW,255,3.0,8.0,100,0.00,,,0.00,27.000000,,2013-06-03 14:42:00,
2013-06-03 07:52:00,54.0,54.0,-100.00,WSW,255,3.0,8.0,100,0.00,,,0.00,27.000000,,2013-06-03 14:52:00,
2013-06-03 08:02:00,54.0,54.0,-100.00,WSW,255,3.0,8.0,100,0.00,,,0.00,27.000000,,2013-06-03 15:02:00,
2013-06-03 08:11:00,54.0,54.0,-100.00,WSW,255,3.0,8.0,100,0.00,,,0.00,27.000000,,2013-06-03 15:11:00,
2013-06-03 08:33:00,55.0,55.0,-100.00,WSW,249,4.0,8.0,100,0.00,,,0.00,79.000000,,2013-06-03 15:33:00,
2013-06-03 08:43:00,55.0,55.0,-100.00,WSW,249,4.0,8.0,100,0.00,,,0.00,79.000000,,2013-06-03 15:43:00,
2013-06-03 08:53:00,55.0,55.0,-100.00,WSW,249,4.0,8.0,100,0.00,,,0.00,79.000000,,2013-06-03 15:53:00,
2013-06-03 09:03:00,55.0,55.0,-100.00,WSW,249,4.0,8.0,100,0.00,,,0.00,79.000000,,2013-06-03 16:03:00,
2013-06-03 09:12:00,55.0,55.0,-100.00,WSW,249,4.0,8.0,100,0.00,,,0.00,79.000000,,2013-06-03 16:12:00,
2013-06-03 09:33:00,60.0,55.0,-100.00,SW,236,6.0,10.0,85,0.00,,,0.00,238.000000,,2013-06-03 16:33:00,
2013-06-03 09:42:00,60.0,55.0,-100.00,SW,236,6.0,10.0,85,0.00,,,0.00,238.000000,,2013-06-03 16:42:00,
2013-06-03 09:53:00,60.0,55.0,-100.00,SW,236,6.0,10.0,85,0.00,,,0.00,238.000000,,2013-06-03 16:53:00,
2013-06-03 10:02:00,60.0,55.0,-100.00,SW,236,6.0,10.0,85,0.00,,,0.00,238.000000,,2013-06-03 17:02:00,
2013-06-03 10:12:00,60.0,55.0,-100.00,SW,236,6.0,10.0,85,0.00,,,0.00,238.000000,,2013-06-03 17:12:00,
2013-06-03 10:33:00,68.0,54.0,-100.00,WSW,244,5.0,14.0,62,0.00,,,0.00,584.000000,,2013-06-03 17:33:00,
2013-06-03 10:42:00,68.0,54.0,-100.00,WSW,244,5.0,14.0,62,0.00,,,0.00,584.000000,,2013-06-03 17:42:00,
2013-06-03 10:52:00,68.0,54.0,-100.00,WSW,244,5.0,14.0,62,0.00,,,0.00,584.000000,,2013-06-03 17:52:00,
2013-06-03 11:02:00,68.0,54.0,-100.00,WSW,244,5.0,14.0,62,0.00,,,0.00,584.000000,,2013-06-03 18:02:00,
2013-06-03 11:12:00,68.0,54.0,-100.00,WSW,244,5.0,14.0,62,0.00,,,0.00,584.000000,,2013-06-03 18:12:00,
2013-06-03 11:32:00,76.0,50.0,-100.00,West,260,6.0,11.0,40,0.00,,,0.00,696.000000,,2013-06-03 18:32:00,
2013-06-03 11:43:00,76.0,50.0,-100.00,West,260,6.0,11.0,40,0.00,,,0.00,696.000000,,2013-06-03 18:43:00,
2013-06-03 11:52:00,76.0,50.0,-100.00,West,260,6.0,11.0,40,0.00,,,0.00,696.000000,,2013-06-03 18:52:00,
2013-06-03 12:03:00,76.0,50.0,-100.00,West,260,6.0,11.0,40,0.00,,,0.00,696.000000,,2013-06-03 19:03:00,
2013-06-03 12:12:00,76.0,50.0,-100.00,West,260,6.0,11.0,40,0.00,,,0.00,696.000000,,2013-06-03 19:12:00,
2013-06-03 12:33:00,79.0,50.0,-100.00,WSW,251,7.0,12.0,37,0.00,,,0.00,760.000000,,2013-06-03 19:33:00,
2013-06-03 12:42:00,79.0,50.0,-100.00,WSW,251,7.0,12.0,37,0.00,,,0.00,760.000000,,2013-06-03 19:42:00,
2013-06-03 12:52:00,79.0,50.0,-100.00,WSW,251,7.0,12.0,37,0.00,,,0.00,760.000000,,2013-06-03 19:52:00,
2013-06-03 13:02:00,79.0,50.0,-100.00,WSW,251,7.0,12.0,37,0.00,,,0.00,760.000000,,2013-06-03 20:02:00,
2013-06-03 13:12:00,79.0,50.0,-100.00,WSW,251,7.0,12.0,37,0.00,,,0.00,760.000000,,2013-06-03 20:12:00,
2013-06-03 13:33:00,81.0,44.0,-100.00,WSW,243,7.0,13.0,27,0.00,,,0.00,785.000000,,2013-06-03 20:33:00,
2013-06-03 13:43:00,81.0,44.0,-100.00,WSW,243,7.0,13.0,27,0.00,,,0.00,785.000000,,2013-06-03 20:43:00,
2013-06-03 13:52:00,81.0,44.0,-100.00,WSW,243,7.0,13.0,27,0.00,,,0.00,785.000000,,2013-06-03 20:52:00,
2013-06-03 14:02:00,81.0,44.0,-100.00,WSW,243,7.0,13.0,27,0.00,,,0.00,785.000000,,2013-06-03 21:02:00,
2013-06-03 14:12:00,81.0,44.0,-100.00,WSW,243,7.0,13.0,27,0.00,,,0.00,785.000000,,2013-06-03 21:12:00,
2013-06-03 14:33:00,83.0,42.0,-100.00,WSW,254,6.0,13.0,24,0.00,,,0.00,767.000000,,2013-06-03 21:33:00,
2013-06-03 14:43:00,83.0,42.0,-100.00,WSW,254,6.0,13.0,24,0.00,,,0.00,767.000000,,2013-06-03 21:43:00,
2013-06-03 14:53:00,83.0,42.0,-100.00,WSW,254,6.0,13.0,24,0.00,,,0.00,767.000000,,2013-06-03 21:53:00,
2013-06-03 15:02:00,83.0,42.0,-100.00,WSW,254,6.0,13.0,24,0.00,,,0.00,767.000000,,2013-06-03 22:02:00,
2013-06-03 15:12:00,83.0,42.0,-100.00,WSW,254,6.0,13.0,24,0.00,,,0.00,767.000000,,2013-06-03 22:12:00,
2013-06-03 15:33:00,85.0,43.0,-100.00,WSW,253,5.0,15.0,23,0.00,,,0.00,701.000000,,2013-06-03 22:33:00,
2013-06-03 15:42:00,85.0,43.0,-100.00,WSW,253,5.0,15.0,23,0.00,,,0.00,701.000000,,2013-06-03 22:42:00,
2013-06-03 15:53:00,85.0,43.0,-100.00,WSW,253,5.0,15.0,23,0.00,,,0.00,701.000000,,2013-06-03 22:53:00,
2013-06-03 16:02:00,85.0,43.0,-100.00,WSW,253,5.0,15.0,23,0.00,,,0.00,701.000000,,2013-06-03 23:02:00,
2013-06-03 16:12:00,85.0,43.0,-100.00,WSW,253,5.0,15.0,23,0.00,,,0.00,701.000000,,2013-06-03 23:12:00,
2013-06-03 16:32:00,86.0,43.0,-100.00,SW,231,6.0,15.0,22,0.00,,,0.00,584.000000,,2013-06-03 23:32:00,
2013-06-03 16:42:00,86.0,43.0,-100.00,SW,231,6.0,15.0,22,0.00,,,0.00,584.000000,,2013-06-03 23:42:00,
2013-06-03 16:52:00,86.0,43.0,-100.00,SW,231,6.0,15.0,22,0.00,,,0.00,584.000000,,2013-06-03 23:52:00,
2013-06-03 17:02:00,86.0,43.0,-100.00,SW,231,6.0,15.0,22,0.00,,,0.00,584.000000,,2013-06-04 00:02:00,
2013-06-03 17:12:00,86.0,43.0,-100.00,SW,231,6.0,15.0,22,0.00,,,0.00,584.000000,,2013-06-04 00:12:00,
2013-06-03 17:32:00,85.0,50.0,-100.00,West,275,5.0,14.0,30,0.00,,,-99.99,429.000000,,2013-06-04 00:32:00,
2013-06-03 17:42:00,85.0,50.0,-100.00,West,275,5.0,14.0,30,0.00,,,-99.99,429.000000,,2013-06-04 00:42:00,
2013-06-03 17:52:00,85.0,50.0,-100.00,West,275,5.0,14.0,30,0.00,,,-99.99,429.000000,,2013-06-04 00:52:00,
2013-06-03 18:02:00,85.0,50.0,-100.00,West,275,5.0,14.0,30,0.00,,,-99.99,429.000000,,2013-06-04 01:02:00,
2013-06-03 18:12:00,85.0,50.0,-100.00,West,275,5.0,14.0,30,0.00,,,-99.99,429.000000,,2013-06-04 01:12:00,
2013-06-03 18:32:00,81.0,51.0,-100.00,SW,218,9.0,16.0,35,0.00,,,0.00,264.000000,,2013-06-04 01:32:00,
2013-06-03 18:42:00,81.0,51.0,-100.00,SW,218,9.0,16.0,35,0.00,,,0.00,264.000000,,2013-06-04 01:42:00,
2013-06-03 18:52:00,81.0,51.0,-100.00,SW,218,9.0,16.0,35,0.00,,,0.00,264.000000,,2013-06-04 01:52:00,
2013-06-03 19:02:00,81.0,51.0,-100.00,SW,218,9.0,16.0,35,0.00,,,0.00,264.000000,,2013-06-04 02:02:00,
2013-06-03 19:12:00,81.0,51.0,-100.00,SW,218,9.0,16.0,35,0.00,,,0.00,264.000000,,2013-06-04 02:12:00,
2013-06-03 19:32:00,74.0,51.0,-100.00,SW,226,10.0,15.0,45,0.00,,,0.00,113.000000,,2013-06-04 02:32:00,
2013-06-03 19:42:00,74.0,51.0,-100.00,SW,226,10.0,15.0,45,0.00,,,0.00,113.000000,,2013-06-04 02:42:00,
2013-06-03 19:52:00,74.0,51.0,-100.00,SW,226,10.0,15.0,45,0.00,,,0.00,113.000000,,2013-06-04 02:52:00,
2013-06-03 20:02:00,74.0,51.0,-100.00,SW,226,10.0,15.0,45,0.00,,,0.00,113.000000,,2013-06-04 03:02:00,
2013-06-03 20:11:00,74.0,51.0,-100.00,SW,226,10.0,15.0,45,0.00,,,0.00,113.000000,,2013-06-04 03:11:00,
2013-06-03 20:33:00,69.0,53.0,-100.00,SW,228,6.0,14.0,57,0.00,,,0.00,9.000000,,2013-06-04 03:33:00,
2013-06-03 20:43:00,69.0,53.0,-100.00,SW,228,6.0,14.0,57,0.00,,,0.00,9.000000,,2013-06-04 03:43:00,
2013-06-03 20:53:00,69.0,53.0,-100.00,SW,228,6.0,14.0,57,0.00,,,0.00,9.000000,,2013-06-04 03:53:00,
2013-06-03 21:02:00,69.0,53.0,-100.00,SW,228,6.0,14.0,57,0.00,,,0.00,9.000000,,2013-06-04 04:02:00,
2013-06-03 21:13:00,69.0,53.0,-100.00,SW,228,6.0,14.0,57,0.00,,,0.00,9.000000,,2013-06-04 04:13:00,
2013-06-03 21:33:00,64.0,53.0,-100.00,SW,225,6.0,11.0,68,0.00,,,0.00,0.000000,,2013-06-04 04:33:00,
2013-06-03 21:42:00,64.0,53.0,-100.00,SW,225,6.0,11.0,68,0.00,,,0.00,0.000000,,2013-06-04 04:42:00,
2013-06-03 21:53:00,64.0,53.0,-100.00,SW,225,6.0,11.0,68,0.00,,,0.00,0.000000,,2013-06-04 04:53:00,
2013-06-03 22:02:00,64.0,53.0,-100.00,SW,225,6.0,11.0,68,0.00,,,0.00,0.000000,,2013-06-04 05:02:00,
2013-06-03 22:11:00,64.0,53.0,-100.00,SW,225,6.0,11.0,68,0.00,,,0.00,0.000000,,2013-06-04 05:11:00,
2013-06-03 22:32:00,61.0,54.0,-100.00,SW,236,4.0,9.0,77,0.00,,,0.00,0.000000,,2013-06-04 05:32:00,
2013-06-03 22:42:00,61.0,54.0,-100.00,SW,236,4.0,9.0,77,0.00,,,0.00,0.000000,,2013-06-04 05:42:00,
2013-06-03 22:52:00,61.0,54.0,-100.00,SW,236,4.0,9.0,77,0.00,,,0.00,0.000000,,2013-06-04 05:52:00,
2013-06-03 23:02:00,61.0,54.0,-100.00,SW,236,4.0,9.0,77,0.00,,,0.00,0.000000,,2013-06-04 06:02:00,
2013-06-03 23:12:00,61.0,54.0,-100.00,SW,236,4.0,9.0,77,0.00,,,0.00,0.000000,,2013-06-04 06:12:00,
2013-06-03 23:32:00,58.0,53.0,-100.00,SW,233,4.0,9.0,83,0.00,,,0.00,0.000000,,2013-06-04 06:32:00,
2013-06-03 23:42:00,58.0,53.0,-100.00,SW,233,4.0,9.0,83,0.00,,,0.00,0.000000,,2013-06-04 06:42:00,
2013-06-03 23:52:00,58.0,53.0,-100.00,SW,233,4.0,9.0,83,0.00,,,0.00,0.000000,,2013-06-04 06:52:00,